Time;durP1;ratioP1;P1;durP2;ratioP2;P2;SDS_P1;SDS_P2;PMS_P1;PMS_P2;Temp;Humidity;BMP_temperature;BMP_pressure;BME280_temperature;BME280_humidity;BME280_pressure;Samples;Min_cycle;Max_cycle;Signal;HPM_P1;HPM_P2
2022/12/27 00:00:49;;;;;;;;;6.75;5.50;;;;;;;;5042094;28;45764;-74
2022/12/27 00:03:14;;;;;;;;;9.25;6.75;;;;;;;;5059601;28;45510;-74
2022/12/27 00:05:46;;;;;;;;;5.00;2.25;;;;;;;;5039034;28;45283;-75
2022/12/27 00:08:11;;;;;;;;;10.75;6.00;;;;;;;;5059769;28;45374;-74
2022/12/27 00:10:37;;;;;;;;;6.00;6.00;;;;;;;;5049527;28;45221;-74
2022/12/27 00:13:02;;;;;;;;;11.00;7.50;;;;;;;;5040155;28;45309;-75
2022/12/27 00:15:28;;;;;;;;;7.25;7.00;;;;;;;;5051486;28;45394;-74
2022/12/27 00:17:53;;;;;;;;;4.00;2.25;;;;;;;;5059880;28;45407;-74
2022/12/27 00:20:18;;;;;;;;;4.50;4.50;;;;;;;;5035548;28;45803;-74
2022/12/27 00:22:43;;;;;;;;;6.25;5.25;;;;;;;;5059909;28;45376;-72
2022/12/27 00:25:09;;;;;;;;;8.75;6.00;;;;;;;;5050059;28;45337;-74
2022/12/27 00:27:34;;;;;;;;;6.00;6.00;;;;;;;;5059738;28;45154;-74
2022/12/27 00:29:59;;;;;;;;;10.75;7.00;;;;;;;;5051906;28;45376;-74
2022/12/27 00:32:24;;;;;;;;;7.25;3.75;;;;;;;;5040787;28;46920;-74
2022/12/27 00:34:50;;;;;;;;;5.25;5.25;;;;;;;;5057789;28;45540;-74
2022/12/27 00:37:15;;;;;;;;;7.50;5.25;;;;;;;;5060257;28;45329;-74
2022/12/27 00:39:40;;;;;;;;;6.25;5.50;;;;;;;;5055428;28;45333;-72
2022/12/27 00:42:05;;;;;;;;;4.75;4.75;;;;;;;;5060938;28;46403;-74
2022/12/27 00:44:30;;;;;;;;;4.00;3.00;;;;;;;;5039933;28;45359;-75
2022/12/27 00:46:56;;;;;;;;;5.25;3.00;;;;;;;;5055873;28;45384;-72
2022/12/27 00:49:21;;;;;;;;;5.00;5.00;;;;;;;;5054130;28;45463;-74
2022/12/27 00:51:46;;;;;;;;;5.00;5.00;;;;;;;;5043002;28;46804;-75
2022/12/27 00:54:11;;;;;;;;;8.75;4.00;;;;;;;;5051669;28;45423;-75
2022/12/27 00:56:37;;;;;;;;;5.50;4.25;;;;;;;;5057405;28;45344;-74
2022/12/27 00:59:03;;;;;;;;;6.00;4.25;;;;;;;;5037905;28;45261;-72
2022/12/27 01:01:29;;;;;;;;;4.50;4.50;;;;;;;;5055655;28;45337;-72
2022/12/27 01:03:55;;;;;;;;;6.50;4.25;;;;;;;;5054408;28;45451;-72
2022/12/27 01:06:21;;;;;;;;;4.50;3.00;;;;;;;;5050504;28;45253;-72
2022/12/27 01:08:46;;;;;;;;;4.75;4.25;;;;;;;;5058781;28;45277;-74
2022/12/27 01:11:12;;;;;;;;;8.00;3.00;;;;;;;;5056565;28;47748;-75
2022/12/27 01:13:37;;;;;;;;;9.25;6.75;;;;;;;;5058554;28;45341;-75
2022/12/27 01:16:10;;;;;;;;;7.75;6.50;;;;;;;;5042793;28;45306;-74
2022/12/27 01:18:36;;;;;;;;;4.25;4.25;;;;;;;;5058590;28;45264;-72
2022/12/27 01:21:08;;;;;;;;;3.00;3.00;;;;;;;;5057349;28;46677;-72
2022/12/27 01:23:33;;;;;;;;;7.75;5.00;;;;;;;;5057012;28;45320;-73
2022/12/27 01:25:59;;;;;;;;;3.00;3.00;;;;;;;;5049668;28;45290;-72
2022/12/27 01:28:25;;;;;;;;;6.75;3.00;;;;;;;;5058391;28;45323;-73
2022/12/27 01:30:50;;;;;;;;;6.00;3.25;;;;;;;;5050680;28;46263;-73
2022/12/27 01:33:15;;;;;;;;;2.50;2.00;;;;;;;;5056725;28;45178;-73
2022/12/27 01:35:40;;;;;;;;;7.50;6.00;;;;;;;;5030836;28;45183;-73
2022/12/27 01:38:05;;;;;;;;;6.25;4.00;;;;;;;;5058526;28;45261;-72
2022/12/27 01:40:31;;;;;;;;;4.75;3.00;;;;;;;;5045281;28;46084;-73
2022/12/27 01:42:56;;;;;;;;;3.75;2.75;;;;;;;;5059256;28;45214;-73
2022/12/27 01:45:21;;;;;;;;;6.50;4.00;;;;;;;;5050290;28;45138;-73
2022/12/27 01:47:46;;;;;;;;;5.00;3.50;;;;;;;;5034815;28;45649;-73
2022/12/27 01:50:11;;;;;;;;;4.00;4.00;;;;;;;;5048954;28;45428;-73
2022/12/27 01:52:37;;;;;;;;;5.25;3.00;;;;;;;;5050835;28;45277;-73
2022/12/27 01:55:06;;;;;;;;;6.25;6.00;;;;;;;;5047462;28;45301;-73
2022/12/27 01:57:32;;;;;;;;;6.00;3.25;;;;;;;;5051726;28;45358;-73
2022/12/27 01:59:57;;;;;;;;;3.00;3.00;;;;;;;;5050987;28;45423;-73
2022/12/27 02:02:22;;;;;;;;;4.50;3.00;;;;;;;;5051306;28;44710;-73
2022/12/27 02:04:48;;;;;;;;;6.00;3.50;;;;;;;;5053205;28;45432;-73
2022/12/27 02:07:13;;;;;;;;;6.75;4.25;;;;;;;;5055423;28;45518;-73
2022/12/27 02:09:38;;;;;;;;;7.25;6.00;;;;;;;;5053017;28;45475;-73
2022/12/27 02:12:05;;;;;;;;;6.75;5.50;;;;;;;;5052802;28;45278;-73
2022/12/27 02:14:33;;;;;;;;;5.00;4.00;;;;;;;;5040974;28;45269;-74
2022/12/27 02:17:03;;;;;;;;;5.25;3.25;;;;;;;;5055854;28;45245;-74
2022/12/27 02:19:35;;;;;;;;;6.50;2.50;;;;;;;;5036021;28;46950;-73
2022/12/27 02:22:15;;;;;;;;;6.00;3.50;;;;;;;;5041567;28;46203;-74
2022/12/27 02:24:43;;;;;;;;;3.75;3.75;;;;;;;;5053610;28;45325;-73
2022/12/27 02:27:17;;;;;;;;;6.00;2.75;;;;;;;;5056270;28;45293;-73
2022/12/27 02:29:42;;;;;;;;;6.00;3.50;;;;;;;;5049179;28;45127;-73
2022/12/27 02:32:11;;;;;;;;;7.25;5.50;;;;;;;;5039190;28;45282;-73
2022/12/27 02:34:41;;;;;;;;;5.75;4.25;;;;;;;;5046003;28;45388;-73
2022/12/27 02:37:09;;;;;;;;;4.50;3.00;;;;;;;;5056473;28;45387;-73
2022/12/27 02:39:35;;;;;;;;;6.50;3.50;;;;;;;;5038017;28;45430;-74
2022/12/27 02:53:10;;;;;;;;;2.25;2.25;;;;;;;;5056389;28;45317;-73
2022/12/27 02:58:56;;;;;;;;;5.75;3.50;;;;;;;;5055169;28;45362;-73
2022/12/27 03:04:41;;;;;;;;;3.25;2.75;;;;;;;;5050808;28;45235;-73
2022/12/27 03:07:21;;;;;;;;;4.75;4.75;;;;;;;;5053372;28;45403;-73
2022/12/27 03:15:54;;;;;;;;;3.00;3.00;;;;;;;;5055747;28;45325;-73
2022/12/27 03:18:24;;;;;;;;;4.00;2.25;;;;;;;;5057025;28;45315;-72
2022/12/27 03:26:20;;;;;;;;;5.00;5.00;;;;;;;;5051904;28;44634;-73
2022/12/27 03:34:34;;;;;;;;;7.50;5.00;;;;;;;;5055808;28;45379;-74
2022/12/27 03:40:22;;;;;;;;;5.00;5.00;;;;;;;;5048031;28;45238;-73
2022/12/27 03:48:37;;;;;;;;;4.00;4.00;;;;;;;;5050065;28;45449;-73
2022/12/27 03:51:03;;;;;;;;;7.75;6.00;;;;;;;;5051292;28;45221;-73
2022/12/27 03:53:28;;;;;;;;;6.75;5.75;;;;;;;;5054289;28;45158;-73
2022/12/27 03:55:54;;;;;;;;;6.75;4.75;;;;;;;;5048763;28;45331;-73
2022/12/27 03:58:19;;;;;;;;;5.50;5.00;;;;;;;;5055788;28;45419;-74
2022/12/27 04:00:45;;;;;;;;;7.75;2.25;;;;;;;;5034481;28;45412;-73
2022/12/27 04:03:10;;;;;;;;;5.00;5.00;;;;;;;;5034846;28;45853;-73
2022/12/27 04:05:35;;;;;;;;;4.75;4.75;;;;;;;;5049461;28;44974;-73
2022/12/27 04:35:20;;;;;;;;;2.25;2.25;;;;;;;;5049013;28;45235;-73
2022/12/27 04:37:45;;;;;;;;;4.75;2.00;;;;;;;;5058567;28;45144;-73
2022/12/27 04:56:35;;;;;;;;;4.50;3.75;;;;;;;;5052422;28;45451;-73
2022/12/27 05:02:03;;;;;;;;;5.50;5.50;;;;;;;;5056366;28;45417;-73
2022/12/27 05:04:29;;;;;;;;;5.50;2.75;;;;;;;;5036430;28;45525;-74
2022/12/27 05:06:55;;;;;;;;;7.25;2.75;;;;;;;;5043217;28;45842;-74
2022/12/27 05:14:48;;;;;;;;;8.00;6.00;;;;;;;;5050465;28;45499;-74
2022/12/27 05:17:13;;;;;;;;;10.75;7.00;;;;;;;;5056365;28;45310;-74
2022/12/27 05:19:38;;;;;;;;;7.25;6.25;;;;;;;;5036585;28;46666;-74
2022/12/27 05:27:31;;;;;;;;;9.25;7.00;;;;;;;;5058233;28;45313;-72
2022/12/27 05:29:56;;;;;;;;;6.00;6.00;;;;;;;;5049277;28;46122;-72
2022/12/27 05:32:21;;;;;;;;;9.75;5.00;;;;;;;;5058302;28;45284;-72
2022/12/27 05:34:47;;;;;;;;;6.50;5.25;;;;;;;;5036690;28;45480;-73
2022/12/27 05:37:12;;;;;;;;;7.25;6.00;;;;;;;;5042324;28;45858;-73
2022/12/27 05:39:37;;;;;;;;;6.00;6.00;;;;;;;;5051096;28;46171;-73
2022/12/27 05:42:02;;;;;;;;;11.75;7.00;;;;;;;;5055714;28;45427;-73
2022/12/27 05:44:28;;;;;;;;;6.25;5.75;;;;;;;;5053985;28;45434;-73
2022/12/27 05:46:53;;;;;;;;;3.75;3.75;;;;;;;;5056491;28;45479;-73
2022/12/27 05:49:18;;;;;;;;;8.00;6.50;;;;;;;;5034390;28;46976;-74
2022/12/27 05:51:44;;;;;;;;;9.25;6.50;;;;;;;;5036278;28;45395;-74
2022/12/27 05:54:09;;;;;;;;;8.00;7.50;;;;;;;;5032319;28;45459;-74
2022/12/27 05:56:36;;;;;;;;;5.25;5.25;;;;;;;;5027869;28;45192;-75
2022/12/27 05:59:01;;;;;;;;;6.50;4.50;;;;;;;;5032783;28;45291;-74
2022/12/27 06:01:26;;;;;;;;;7.00;7.00;;;;;;;;5029306;28;45399;-75
2022/12/27 06:03:51;;;;;;;;;7.00;5.25;;;;;;;;5037234;28;45372;-75
2022/12/27 06:06:16;;;;;;;;;9.25;7.50;;;;;;;;5031361;28;45250;-75
2022/12/27 06:08:42;;;;;;;;;4.00;4.00;;;;;;;;5036231;28;48236;-74
2022/12/27 06:11:08;;;;;;;;;10.00;5.25;;;;;;;;5032719;28;45260;-74
2022/12/27 06:13:34;;;;;;;;;5.00;3.00;;;;;;;;5036873;28;45487;-74
2022/12/27 06:16:00;;;;;;;;;5.75;5.25;;;;;;;;5028619;28;44854;-74
2022/12/27 06:18:25;;;;;;;;;7.75;6.00;;;;;;;;5037557;28;45499;-74
2022/12/27 06:20:50;;;;;;;;;5.50;5.00;;;;;;;;5032282;28;45215;-74
2022/12/27 06:23:15;;;;;;;;;5.75;4.75;;;;;;;;5036391;28;45229;-75
2022/12/27 06:25:40;;;;;;;;;6.75;6.00;;;;;;;;5033371;28;45364;-75
2022/12/27 06:28:06;;;;;;;;;7.50;5.00;;;;;;;;5038362;28;45540;-75
2022/12/27 06:30:31;;;;;;;;;6.75;3.00;;;;;;;;5027234;28;45550;-75
2022/12/27 06:32:56;;;;;;;;;6.50;3.25;;;;;;;;5039973;28;45312;-75
2022/12/27 06:35:21;;;;;;;;;7.00;4.50;;;;;;;;5027836;28;45361;-75
2022/12/27 06:37:46;;;;;;;;;8.75;4.75;;;;;;;;5038607;28;45319;-75
2022/12/27 06:40:12;;;;;;;;;9.75;6.00;;;;;;;;5026209;28;45642;-75
2022/12/27 06:42:37;;;;;;;;;3.00;3.00;;;;;;;;5037000;28;45359;-75
2022/12/27 06:45:02;;;;;;;;;3.25;2.25;;;;;;;;5035817;28;45367;-75
2022/12/27 06:47:27;;;;;;;;;6.00;5.75;;;;;;;;5039849;28;45388;-75
2022/12/27 06:49:54;;;;;;;;;7.75;6.25;;;;;;;;5045643;28;45430;-75
2022/12/27 06:52:21;;;;;;;;;5.25;5.25;;;;;;;;5041375;28;45463;-75
2022/12/27 06:54:47;;;;;;;;;6.00;5.50;;;;;;;;5055171;28;45321;-75
2022/12/27 06:57:12;;;;;;;;;7.50;5.00;;;;;;;;5054517;28;45007;-75
2022/12/27 06:59:37;;;;;;;;;6.00;6.00;;;;;;;;5049693;28;45377;-75
2022/12/27 07:02:02;;;;;;;;;6.00;6.00;;;;;;;;5032928;28;45443;-75
2022/12/27 07:04:27;;;;;;;;;7.50;5.50;;;;;;;;5051068;28;45185;-75
2022/12/27 07:06:53;;;;;;;;;6.25;4.00;;;;;;;;5041057;28;47390;-75
2022/12/27 07:09:18;;;;;;;;;10.50;6.00;;;;;;;;5050973;28;45409;-76
2022/12/27 07:11:44;;;;;;;;;10.00;7.00;;;;;;;;5052911;28;45250;-76
2022/12/27 07:14:09;;;;;;;;;7.25;7.00;;;;;;;;5051763;28;45174;-76
2022/12/27 07:16:35;;;;;;;;;10.00;7.50;;;;;;;;5054253;28;45490;-76
2022/12/27 07:19:00;;;;;;;;;9.00;7.25;;;;;;;;5052895;28;45456;-76
2022/12/27 07:21:27;;;;;;;;;13.00;12.00;;;;;;;;5052127;28;45435;-75
2022/12/27 07:23:52;;;;;;;;;11.75;11.75;;;;;;;;5040026;28;47002;-75
2022/12/27 07:26:19;;;;;;;;;7.25;7.25;;;;;;;;5047233;28;45415;-75
2022/12/27 07:28:44;;;;;;;;;13.25;8.50;;;;;;;;5055411;28;45364;-76
2022/12/27 07:31:11;;;;;;;;;12.50;11.00;;;;;;;;5048509;28;45278;-75
2022/12/27 07:33:37;;;;;;;;;13.00;10.00;;;;;;;;5056098;28;45272;-77
2022/12/27 07:36:04;;;;;;;;;10.75;8.25;;;;;;;;5048809;28;46023;-77
2022/12/27 07:38:30;;;;;;;;;8.75;8.00;;;;;;;;5056752;28;45570;-77
2022/12/27 07:40:57;;;;;;;;;13.75;10.50;;;;;;;;5049927;28;45486;-77
2022/12/27 07:43:22;;;;;;;;;13.25;10.25;;;;;;;;5056616;28;45352;-75
2022/12/27 07:45:47;;;;;;;;;11.25;11.25;;;;;;;;5040885;28;45570;-75
2022/12/27 07:48:12;;;;;;;;;6.25;6.25;;;;;;;;5052159;28;45297;-78
2022/12/27 07:50:38;;;;;;;;;9.00;6.25;;;;;;;;5055391;28;45315;-77
2022/12/27 07:53:03;;;;;;;;;10.00;8.00;;;;;;;;5061061;28;45336;-77
2022/12/27 07:55:28;;;;;;;;;8.00;6.00;;;;;;;;5035755;28;47800;-77
2022/12/27 07:57:53;;;;;;;;;7.00;6.00;;;;;;;;5057065;28;45549;-77
2022/12/27 08:00:19;;;;;;;;;11.00;8.00;;;;;;;;5049228;28;45321;-78
2022/12/27 08:02:46;;;;;;;;;8.00;6.00;;;;;;;;5062031;28;45299;-78
2022/12/27 08:05:11;;;;;;;;;10.00;3.50;;;;;;;;5053832;28;45559;-74
2022/12/27 08:07:37;;;;;;;;;5.00;5.00;;;;;;;;5058320;28;45269;-77
2022/12/27 08:10:02;;;;;;;;;7.00;6.00;;;;;;;;5054703;28;45433;-75
2022/12/27 08:12:27;;;;;;;;;11.25;7.00;;;;;;;;5058114;28;45194;-76
2022/12/27 08:14:53;;;;;;;;;11.00;7.00;;;;;;;;5038871;28;47178;-77
2022/12/27 08:17:20;;;;;;;;;10.00;8.50;;;;;;;;5038704;28;45230;-75
2022/12/27 08:19:46;;;;;;;;;10.25;7.25;;;;;;;;5034192;28;45432;-76
2022/12/27 08:22:11;;;;;;;;;7.25;7.00;;;;;;;;5038644;28;45992;-77
2022/12/27 08:24:37;;;;;;;;;12.25;10.00;;;;;;;;5050946;28;46258;-77
2022/12/27 08:27:02;;;;;;;;;10.50;7.50;;;;;;;;5039523;28;45366;-77
2022/12/27 08:29:27;;;;;;;;;11.00;8.50;;;;;;;;5037330;28;45473;-77
2022/12/27 08:31:53;;;;;;;;;11.75;11.00;;;;;;;;5058598;28;45336;-77
2022/12/27 08:34:18;;;;;;;;;12.25;11.25;;;;;;;;5058580;28;45391;-77
2022/12/27 08:36:43;;;;;;;;;11.75;10.25;;;;;;;;5053243;28;45506;-77
2022/12/27 08:39:10;;;;;;;;;9.00;8.00;;;;;;;;5054294;28;45301;-77
2022/12/27 08:41:36;;;;;;;;;15.00;10.75;;;;;;;;5052687;28;45336;-77
2022/12/27 08:44:01;;;;;;;;;9.75;7.75;;;;;;;;5053597;28;45365;-77
2022/12/27 08:46:26;;;;;;;;;7.25;7.00;;;;;;;;5054838;28;44714;-77
2022/12/27 08:48:51;;;;;;;;;10.50;9.50;;;;;;;;5055981;28;45389;-77
2022/12/27 08:51:16;;;;;;;;;5.75;5.75;;;;;;;;5054653;28;45407;-76
2022/12/27 08:53:42;;;;;;;;;10.50;8.75;;;;;;;;5052524;28;45209;-77
2022/12/27 08:56:07;;;;;;;;;10.00;9.00;;;;;;;;5050669;28;45345;-77
2022/12/27 08:58:33;;;;;;;;;8.50;7.00;;;;;;;;5058740;28;45265;-77
2022/12/27 09:01:05;;;;;;;;;8.00;8.00;;;;;;;;5049543;28;45825;-77
2022/12/27 09:03:30;;;;;;;;;8.50;6.50;;;;;;;;5058994;28;45348;-77
2022/12/27 09:06:05;;;;;;;;;7.75;6.75;;;;;;;;5053656;28;45404;-77
2022/12/27 09:08:30;;;;;;;;;9.75;7.00;;;;;;;;5053676;28;44968;-78
2022/12/27 09:10:55;;;;;;;;;10.50;7.00;;;;;;;;5051381;28;45245;-77
2022/12/27 09:13:21;;;;;;;;;7.50;6.75;;;;;;;;5058660;28;45312;-76
2022/12/27 09:15:46;;;;;;;;;5.50;5.50;;;;;;;;5046655;28;45345;-76
2022/12/27 09:18:12;;;;;;;;;6.75;6.75;;;;;;;;5059664;28;45365;-76
2022/12/27 09:20:37;;;;;;;;;8.50;6.00;;;;;;;;5038319;28;45497;-75
2022/12/27 09:23:02;;;;;;;;;6.00;4.00;;;;;;;;5041845;28;46465;-75
2022/12/27 09:25:27;;;;;;;;;8.00;6.50;;;;;;;;5046944;28;45427;-74
2022/12/27 09:27:53;;;;;;;;;6.00;6.00;;;;;;;;5060894;28;44784;-75
2022/12/27 09:30:19;;;;;;;;;7.25;6.00;;;;;;;;5047286;28;45238;-75
2022/12/27 09:32:44;;;;;;;;;7.75;6.75;;;;;;;;5060779;28;45271;-75
2022/12/27 09:35:09;;;;;;;;;3.00;3.00;;;;;;;;5048815;28;45355;-75
2022/12/27 09:37:34;;;;;;;;;3.00;3.00;;;;;;;;5059425;28;45379;-74
2022/12/27 09:39:59;;;;;;;;;7.50;6.50;;;;;;;;5050280;28;45304;-75
2022/12/27 09:42:43;;;;;;;;;6.00;5.75;;;;;;;;5059732;28;46161;-75
2022/12/27 09:45:14;;;;;;;;;6.25;4.50;;;;;;;;5045999;28;45218;-74
2022/12/27 09:47:39;;;;;;;;;8.25;6.25;;;;;;;;5050376;28;45250;-75
2022/12/27 09:50:09;;;;;;;;;6.75;5.00;;;;;;;;5041046;28;45520;-74
2022/12/27 09:52:49;;;;;;;;;10.75;7.00;;;;;;;;5054391;28;45424;-74
2022/12/27 09:55:33;;;;;;;;;7.00;5.50;;;;;;;;5039918;28;44968;-74
2022/12/27 09:58:11;;;;;;;;;7.00;7.00;;;;;;;;5058652;28;45524;-74
2022/12/27 10:00:37;;;;;;;;;12.75;9.00;;;;;;;;5051418;28;44753;-73
2022/12/27 10:03:05;;;;;;;;;8.25;6.00;;;;;;;;5055379;28;45455;-75
2022/12/27 10:05:32;;;;;;;;;10.00;7.75;;;;;;;;5038555;28;45246;-74
2022/12/27 10:08:04;;;;;;;;;10.25;7.25;;;;;;;;5055194;28;45511;-74
2022/12/27 10:10:37;;;;;;;;;12.25;10.00;;;;;;;;5052456;28;45391;-74
2022/12/27 10:13:09;;;;;;;;;12.00;10.50;;;;;;;;5057160;28;45167;-74
2022/12/27 10:15:53;;;;;;;;;6.00;4.00;;;;;;;;5050724;28;45390;-74
2022/12/27 10:18:25;;;;;;;;;8.00;7.00;;;;;;;;5057510;28;44922;-74
2022/12/27 10:21:00;;;;;;;;;8.75;6.75;;;;;;;;5036757;28;45700;-74
2022/12/27 10:23:31;;;;;;;;;9.50;6.00;;;;;;;;5057343;28;45217;-75
2022/12/27 10:26:06;;;;;;;;;8.00;5.50;;;;;;;;5048559;28;45360;-74
2022/12/27 10:28:38;;;;;;;;;9.50;8.25;;;;;;;;5057645;28;45707;-74
2022/12/27 10:31:04;;;;;;;;;10.75;8.00;;;;;;;;5041030;28;45738;-74
2022/12/27 10:33:31;;;;;;;;;10.00;7.00;;;;;;;;5057484;28;46176;-74
2022/12/27 10:35:56;;;;;;;;;8.75;8.75;;;;;;;;5050097;28;45246;-74
2022/12/27 10:38:23;;;;;;;;;7.50;3.50;;;;;;;;5057554;28;46887;-74
2022/12/27 10:40:48;;;;;;;;;7.00;4.00;;;;;;;;5047418;28;45651;-74
2022/12/27 10:43:31;;;;;;;;;8.00;5.00;;;;;;;;5038438;28;47226;-74
2022/12/27 10:46:09;;;;;;;;;4.75;3.25;;;;;;;;5053059;28;45408;-73
2022/12/27 10:48:34;;;;;;;;;7.25;4.25;;;;;;;;5054988;28;45455;-73
2022/12/27 10:51:05;;;;;;;;;5.00;3.00;;;;;;;;5036486;28;46342;-73
2022/12/27 10:54:00;;;;;;;;;9.75;3.00;;;;;;;;5055590;28;45563;-74
2022/12/27 10:56:28;;;;;;;;;7.50;5.00;;;;;;;;5018233;28;45496;-72
2022/12/27 10:59:15;;;;;;;;;8.00;5.00;;;;;;;;5055176;28;45249;-73
2022/12/27 11:01:41;;;;;;;;;5.75;4.00;;;;;;;;5048333;28;45236;-73
2022/12/27 11:04:26;;;;;;;;;3.50;3.50;;;;;;;;5051103;28;46072;-73
2022/12/27 11:07:03;;;;;;;;;5.00;4.00;;;;;;;;5050144;28;45390;-73
2022/12/27 11:09:33;;;;;;;;;3.00;3.00;;;;;;;;5056505;28;45509;-73
2022/12/27 11:12:16;;;;;;;;;4.00;4.00;;;;;;;;5052004;28;45839;-73
2022/12/27 11:15:00;;;;;;;;;2.25;2.25;;;;;;;;5039259;28;47796;-73
2022/12/27 11:17:35;;;;;;;;;5.25;5.00;;;;;;;;5040809;28;45376;-73
2022/12/27 11:20:05;;;;;;;;;6.00;4.00;;;;;;;;5047111;28;45364;-73
2022/12/27 11:22:30;;;;;;;;;3.00;2.00;;;;;;;;5055112;28;46423;-73
2022/12/27 11:24:58;;;;;;;;;1.75;1.25;;;;;;;;5053959;28;46379;-73
2022/12/27 11:27:25;;;;;;;;;2.25;2.25;;;;;;;;5059357;28;45400;-73
2022/12/27 11:29:52;;;;;;;;;4.25;3.00;;;;;;;;5056687;28;45274;-73
2022/12/27 11:32:18;;;;;;;;;5.00;3.75;;;;;;;;5043233;28;45822;-73
2022/12/27 11:34:45;;;;;;;;;1.75;1.50;;;;;;;;5056945;28;45687;-73
2022/12/27 11:37:14;;;;;;;;;4.00;3.00;;;;;;;;5055438;28;45360;-73
2022/12/27 11:39:48;;;;;;;;;2.75;2.75;;;;;;;;5038281;28;45408;-73
2022/12/27 11:42:20;;;;;;;;;2.25;2.25;;;;;;;;5041165;28;46062;-73
2022/12/27 11:44:51;;;;;;;;;6.50;4.50;;;;;;;;5057368;28;45781;-73
2022/12/27 11:47:19;;;;;;;;;5.75;2.00;;;;;;;;5050925;28;45584;-74
2022/12/27 11:49:56;;;;;;;;;3.75;2.50;;;;;;;;5058385;28;45210;-74
2022/12/27 11:52:51;;;;;;;;;5.00;2.00;;;;;;;;5051003;28;45454;-73
2022/12/27 11:55:51;;;;;;;;;3.25;2.50;;;;;;;;5041053;28;45438;-73
2022/12/27 11:58:35;;;;;;;;;2.00;2.00;;;;;;;;4958837;28;45299;-73
2022/12/27 12:01:06;;;;;;;;;3.75;2.50;;;;;;;;5039888;28;44833;-74
2022/12/27 12:03:32;;;;;;;;;2.25;1.00;;;;;;;;5054611;28;45255;-73
2022/12/27 12:06:06;;;;;;;;;2.25;1.25;;;;;;;;5055333;28;45240;-73
2022/12/27 12:08:34;;;;;;;;;3.00;2.00;;;;;;;;5037176;28;45436;-73
2022/12/27 12:11:12;;;;;;;;;3.50;1.25;;;;;;;;5054951;28;45511;-73
2022/12/27 12:13:56;;;;;;;;;3.00;2.00;;;;;;;;5056167;28;45391;-73
2022/12/27 12:16:24;;;;;;;;;2.00;2.00;;;;;;;;5054132;28;45353;-73
2022/12/27 12:19:07;;;;;;;;;4.00;2.25;;;;;;;;5056935;28;45233;-72
2022/12/27 12:21:39;;;;;;;;;2.50;2.50;;;;;;;;5040177;28;45234;-73
2022/12/27 12:24:34;;;;;;;;;3.75;2.00;;;;;;;;5057761;28;45297;-73
2022/12/27 12:27:02;;;;;;;;;2.00;1.00;;;;;;;;5047515;28;45464;-73
2022/12/27 12:29:36;;;;;;;;;2.00;2.00;;;;;;;;5055911;28;44808;-73
2022/12/27 12:32:14;;;;;;;;;2.75;1.25;;;;;;;;5051457;28;45340;-73
2022/12/27 12:34:57;;;;;;;;;2.75;1.00;;;;;;;;5054909;28;45533;-73
2022/12/27 12:37:35;;;;;;;;;2.25;1.00;;;;;;;;5048724;28;45478;-73
2022/12/27 12:40:06;;;;;;;;;1.50;1.50;;;;;;;;5057175;28;45447;-73
2022/12/27 12:42:50;;;;;;;;;1.00;1.00;;;;;;;;5058055;28;45258;-73
2022/12/27 12:45:18;;;;;;;;;4.00;2.00;;;;;;;;5059296;28;45300;-73
2022/12/27 12:47:56;;;;;;;;;3.00;1.25;;;;;;;;5054827;28;45396;-73
2022/12/27 12:50:34;;;;;;;;;3.50;1.75;;;;;;;;5037594;28;45261;-73
2022/12/27 12:53:00;;;;;;;;;2.25;1.25;;;;;;;;5045331;28;45442;-73
2022/12/27 12:55:45;;;;;;;;;2.25;2.00;;;;;;;;5050535;28;45286;-72
2022/12/27 12:58:29;;;;;;;;;2.50;2.00;;;;;;;;5009575;28;45641;-73
2022/12/27 13:01:12;;;;;;;;;1.50;1.50;;;;;;;;5059805;28;45450;-73
2022/12/27 13:03:37;;;;;;;;;1.00;1.00;;;;;;;;5049741;28;45290;-73
2022/12/27 13:06:18;;;;;;;;;1.00;1.00;;;;;;;;5059071;28;45353;-73
2022/12/27 13:09:02;;;;;;;;;2.50;1.50;;;;;;;;5037700;28;47799;-72
2022/12/27 13:11:33;;;;;;;;;0.00;0.00;;;;;;;;5039907;28;45357;-73
2022/12/27 13:14:04;;;;;;;;;1.00;1.00;;;;;;;;5050639;28;45589;-73
2022/12/27 13:16:41;;;;;;;;;3.25;0.75;;;;;;;;5035907;28;45594;-74
2022/12/27 13:19:20;;;;;;;;;1.50;0.00;;;;;;;;5058067;28;45472;-73
2022/12/27 13:21:51;;;;;;;;;3.25;2.00;;;;;;;;5037361;28;44791;-73
2022/12/27 13:24:22;;;;;;;;;1.00;0.75;;;;;;;;5059746;28;45503;-73
2022/12/27 13:26:54;;;;;;;;;2.00;1.00;;;;;;;;5055055;28;45550;-74
2022/12/27 13:29:38;;;;;;;;;1.00;1.00;;;;;;;;5036031;28;48042;-74
2022/12/27 13:32:23;;;;;;;;;3.25;0.75;;;;;;;;5038782;28;45463;-73
2022/12/27 13:34:57;;;;;;;;;1.00;1.00;;;;;;;;5050850;28;45451;-73
2022/12/27 13:37:41;;;;;;;;;0.25;0.25;;;;;;;;5054848;28;45417;-73
2022/12/27 13:40:18;;;;;;;;;0.00;0.00;;;;;;;;5056731;28;45523;-73
2022/12/27 13:43:04;;;;;;;;;2.50;0.00;;;;;;;;5037235;28;45531;-73
2022/12/27 13:45:46;;;;;;;;;1.50;0.00;;;;;;;;5059244;28;45443;-73
2022/12/27 13:48:26;;;;;;;;;2.25;1.00;;;;;;;;5036083;28;46208;-73
2022/12/27 13:50:55;;;;;;;;;1.00;1.00;;;;;;;;5041235;28;45383;-73
2022/12/27 13:53:20;;;;;;;;;0.00;0.00;;;;;;;;5036914;28;45282;-72
2022/12/27 13:55:59;;;;;;;;;1.00;1.00;;;;;;;;5060023;28;45584;-74
2022/12/27 13:58:42;;;;;;;;;0.00;0.00;;;;;;;;5047709;28;45412;-73
2022/12/27 14:01:26;;;;;;;;;1.00;0.00;;;;;;;;5045890;28;45344;-73
2022/12/27 14:04:10;;;;;;;;;1.00;1.00;;;;;;;;5053593;28;45353;-73
2022/12/27 14:06:54;;;;;;;;;1.00;1.00;;;;;;;;5037255;28;45527;-73
2022/12/27 14:09:22;;;;;;;;;2.25;1.00;;;;;;;;5039136;28;45662;-74
2022/12/27 14:11:47;;;;;;;;;1.00;1.00;;;;;;;;5038937;28;45315;-73
2022/12/27 14:14:14;;;;;;;;;1.25;1.00;;;;;;;;5051072;28;45471;-73
2022/12/27 14:16:50;;;;;;;;;3.25;1.25;;;;;;;;5053540;28;45710;-73
2022/12/27 14:19:34;;;;;;;;;2.00;2.00;;;;;;;;5051152;28;45376;-74
2022/12/27 14:22:22;;;;;;;;;2.50;1.00;;;;;;;;5047811;28;45518;-73
2022/12/27 14:25:06;;;;;;;;;1.00;1.00;;;;;;;;5030703;28;45340;-73
2022/12/27 14:27:49;;;;;;;;;1.50;1.00;;;;;;;;5038505;28;45487;-73
2022/12/27 14:30:21;;;;;;;;;0.50;0.00;;;;;;;;5040294;28;46622;-73
2022/12/27 14:33:01;;;;;;;;;4.50;2.00;;;;;;;;5035589;28;47197;-72
2022/12/27 14:35:26;;;;;;;;;1.00;1.00;;;;;;;;5043117;28;45590;-73
2022/12/27 14:38:10;;;;;;;;;2.25;1.75;;;;;;;;5036515;28;45424;-73
2022/12/27 14:40:48;;;;;;;;;1.25;1.25;;;;;;;;5036524;28;46090;-73
2022/12/27 14:43:32;;;;;;;;;1.00;1.00;;;;;;;;5050860;28;45363;-73
2022/12/27 14:46:08;;;;;;;;;1.00;1.00;;;;;;;;5058809;28;45340;-72
2022/12/27 14:48:52;;;;;;;;;0.50;0.00;;;;;;;;5054792;28;45392;-73
2022/12/27 14:51:17;;;;;;;;;1.00;1.00;;;;;;;;5050979;28;45238;-73
2022/12/27 14:53:55;;;;;;;;;0.00;0.00;;;;;;;;5048032;28;46661;-73
2022/12/27 14:56:40;;;;;;;;;3.25;3.00;;;;;;;;5057281;28;45415;-73
2022/12/27 14:59:14;;;;;;;;;1.50;1.00;;;;;;;;5016538;28;45198;-73
2022/12/27 15:01:42;;;;;;;;;4.00;2.00;;;;;;;;5054988;28;45399;-73
2022/12/27 15:04:16;;;;;;;;;2.25;2.00;;;;;;;;5035179;28;47158;-73
2022/12/27 15:06:42;;;;;;;;;1.00;1.00;;;;;;;;5054547;28;45430;-73
2022/12/27 15:09:26;;;;;;;;;2.50;1.00;;;;;;;;5030075;28;45206;-73
2022/12/27 15:11:54;;;;;;;;;5.00;3.00;;;;;;;;5051744;28;45230;-73
2022/12/27 15:14:19;;;;;;;;;1.50;1.50;;;;;;;;5046274;28;45396;-73
2022/12/27 15:16:47;;;;;;;;;1.50;1.50;;;;;;;;5052465;28;45330;-73
2022/12/27 15:19:25;;;;;;;;;3.00;1.00;;;;;;;;5050940;28;45236;-73
2022/12/27 15:22:09;;;;;;;;;5.00;2.00;;;;;;;;5045828;28;45514;-71
2022/12/27 15:24:53;;;;;;;;;1.25;1.25;;;;;;;;5049426;28;45318;-73
2022/12/27 15:27:24;;;;;;;;;3.00;1.75;;;;;;;;5052345;28;45213;-73
2022/12/27 15:29:49;;;;;;;;;2.50;1.00;;;;;;;;5041015;28;45336;-72
2022/12/27 15:32:25;;;;;;;;;2.75;2.00;;;;;;;;5050467;28;45478;-73
2022/12/27 15:34:59;;;;;;;;;3.25;3.00;;;;;;;;5035648;28;46842;-73
2022/12/27 15:37:43;;;;;;;;;3.00;2.00;;;;;;;;5038815;28;45344;-73
2022/12/27 15:40:24;;;;;;;;;2.75;2.00;;;;;;;;5037810;28;44785;-73
2022/12/27 15:43:02;;;;;;;;;2.25;1.00;;;;;;;;5038637;28;46265;-73
2022/12/27 15:45:37;;;;;;;;;1.25;1.25;;;;;;;;5040904;28;46191;-73
2022/12/27 15:48:05;;;;;;;;;2.00;2.00;;;;;;;;5047588;28;45504;-73
2022/12/27 15:50:38;;;;;;;;;2.00;2.00;;;;;;;;5058937;28;45435;-73
2022/12/27 15:53:18;;;;;;;;;3.75;1.50;;;;;;;;5046063;28;45285;-73
2022/12/27 15:56:01;;;;;;;;;2.00;2.00;;;;;;;;5058302;28;45447;-72
2022/12/27 15:58:27;;;;;;;;;2.75;2.00;;;;;;;;5029769;28;45360;-72
2022/12/27 16:01:11;;;;;;;;;4.25;3.00;;;;;;;;5058887;28;45742;-72
2022/12/27 16:03:37;;;;;;;;;2.00;2.00;;;;;;;;5053788;28;45475;-73
2022/12/27 16:06:03;;;;;;;;;5.00;3.75;;;;;;;;5057109;28;46457;-72
2022/12/27 16:08:38;;;;;;;;;4.25;3.25;;;;;;;;5053550;28;45281;-72
2022/12/27 16:11:06;;;;;;;;;5.00;2.00;;;;;;;;5060248;28;45210;-73
2022/12/27 16:13:31;;;;;;;;;2.00;1.00;;;;;;;;5052252;28;45419;-72
2022/12/27 16:15:57;;;;;;;;;3.75;3.50;;;;;;;;5061200;28;45254;-73
2022/12/27 16:18:22;;;;;;;;;5.00;5.00;;;;;;;;5054641;28;45412;-73
2022/12/27 16:21:01;;;;;;;;;3.25;3.25;;;;;;;;5062039;28;45151;-72
2022/12/27 16:23:31;;;;;;;;;6.25;4.00;;;;;;;;5055416;28;46203;-72
2022/12/27 16:26:01;;;;;;;;;8.25;3.50;;;;;;;;5060764;28;45277;-72
2022/12/27 16:28:28;;;;;;;;;7.00;4.00;;;;;;;;5051364;28;45358;-72
2022/12/27 16:30:57;;;;;;;;;6.75;5.00;;;;;;;;5042537;28;45360;-73
2022/12/27 16:33:25;;;;;;;;;4.25;4.00;;;;;;;;5056038;28;45356;-72
2022/12/27 16:36:09;;;;;;;;;6.75;4.50;;;;;;;;5059379;28;46449;-72
2022/12/27 16:38:35;;;;;;;;;8.00;5.75;;;;;;;;5055939;28;45371;-72